Time;durP1;ratioP1;P1;durP2;ratioP2;P2;SDS_P1;SDS_P2;PMS_P1;PMS_P2;Temp;Humidity;BMP_temperature;BMP_pressure;BME280_temperature;BME280_humidity;BME280_pressure;Samples;Min_cycle;Max_cycle;Signal;HPM_P1;HPM_P2
2023/05/31 00:02:14;;;;;;;9.23;7.13;;;;;;;13.25;72.24;101848.81;5005416;28;20286;-66
2023/05/31 00:04:41;;;;;;;9.60;7.47;;;;;;;13.17;72.24;101846.56;5007657;28;20238;-66
2023/05/31 00:07:07;;;;;;;7.97;7.13;;;;;;;13.09;72.92;101851.41;5007480;28;20203;-66
2023/05/31 00:09:35;;;;;;;12.60;7.43;;;;;;;13.04;73.34;101853.50;5007224;28;20215;-66
2023/05/31 00:12:02;;;;;;;13.37;7.07;;;;;;;13.00;74.34;101851.94;5005287;28;20214;-67
2023/05/31 00:14:28;;;;;;;7.87;7.00;;;;;;;12.99;74.50;101852.88;5006087;28;20227;-68
2023/05/31 00:16:55;;;;;;;8.77;6.73;;;;;;;12.98;74.92;101852.00;5050414;22;20229;-68
2023/05/31 00:19:21;;;;;;;10.07;7.43;;;;;;;12.98;75.00;101853.81;5046540;28;20233;-68
2023/05/31 00:21:47;;;;;;;7.93;7.13;;;;;;;12.95;75.16;101856.66;5047370;28;20202;-68
2023/05/31 00:24:14;;;;;;;8.63;7.63;;;;;;;12.88;75.33;101849.94;5045421;28;20210;-68
2023/05/31 00:26:42;;;;;;;10.30;8.07;;;;;;;12.78;75.51;101849.53;5035319;28;20235;-68
2023/05/31 00:29:08;;;;;;;10.00;7.80;;;;;;;12.74;76.09;101853.31;5021805;28;20206;-68
2023/05/31 00:31:35;;;;;;;10.10;7.57;;;;;;;12.68;76.06;101859.00;5020663;28;20221;-68
2023/05/31 00:34:01;;;;;;;10.57;7.43;;;;;;;12.64;76.56;101852.09;5027121;28;20209;-68
2023/05/31 00:36:27;;;;;;;8.67;7.77;;;;;;;12.58;76.75;101853.25;5025614;28;20225;-68
2023/05/31 00:38:54;;;;;;;10.03;7.60;;;;;;;12.55;76.65;101849.88;5025645;28;20226;-68
2023/05/31 00:41:21;;;;;;;9.93;7.80;;;;;;;12.49;76.76;101848.41;5025867;28;20245;-68
2023/05/31 00:43:49;;;;;;;11.13;7.57;;;;;;;12.41;76.64;101846.13;5020142;28;20214;-68
2023/05/31 00:46:26;;;;;;;7.50;6.40;;;;;;;12.34;76.86;101851.91;5022337;28;20240;-69
2023/05/31 00:48:53;;;;;;;8.77;6.80;;;;;;;12.26;76.99;101841.59;5021553;28;20229;-68
2023/05/31 00:51:20;;;;;;;11.87;7.50;;;;;;;12.20;77.45;101846.38;5025558;28;20300;-68
2023/05/31 00:53:47;;;;;;;10.73;7.53;;;;;;;12.12;77.79;101852.13;5026506;28;20202;-67
2023/05/31 00:56:14;;;;;;;10.50;7.23;;;;;;;12.06;77.85;101845.28;5026646;28;20247;-68
2023/05/31 00:58:41;;;;;;;8.97;6.90;;;;;;;12.03;78.17;101856.09;5024684;28;20264;-68
2023/05/31 01:01:09;;;;;;;10.27;7.57;;;;;;;11.99;78.65;101862.56;5026269;28;20215;-68
2023/05/31 01:03:36;;;;;;;9.20;6.70;;;;;;;11.96;78.71;101860.03;5026870;28;20206;-68
2023/05/31 01:06:03;;;;;;;7.10;6.37;;;;;;;11.91;78.39;101862.06;5025416;28;20633;-68
2023/05/31 01:08:29;;;;;;;7.67;6.60;;;;;;;11.83;78.10;101861.56;5024377;28;20250;-68
2023/05/31 01:11:00;;;;;;;8.03;7.03;;;;;;;11.75;77.92;101856.59;5022192;28;20201;-68
2023/05/31 01:13:38;;;;;;;7.80;6.37;;;;;;;11.66;78.12;101856.16;5019155;28;20232;-68
2023/05/31 01:16:12;;;;;;;8.70;7.33;;;;;;;11.59;78.12;101865.41;5024287;28;20231;-68
2023/05/31 01:18:44;;;;;;;7.83;6.87;;;;;;;11.53;78.37;101861.22;5025438;28;20457;-68
2023/05/31 01:21:13;;;;;;;12.03;7.27;;;;;;;11.48;78.95;101858.78;5018097;28;20212;-68
2023/05/31 01:24:00;;;;;;;12.87;7.67;;;;;;;11.46;79.41;101852.66;5025660;28;20706;-68
2023/05/31 01:26:36;;;;;;;10.40;7.47;;;;;;;11.43;79.29;101854.63;5021262;28;20245;-68
2023/05/31 01:29:05;;;;;;;9.03;7.30;;;;;;;11.40;80.03;101862.75;5021367;28;20199;-68
2023/05/31 01:31:35;;;;;;;9.83;8.00;;;;;;;11.39;80.23;101855.69;5024858;28;20217;-68
2023/05/31 01:34:03;;;;;;;8.80;7.03;;;;;;;11.37;80.65;101861.09;5022050;28;20243;-68
2023/05/31 01:36:29;;;;;;;9.53;7.27;;;;;;;11.38;80.85;101862.84;5025541;28;20226;-68
2023/05/31 01:38:56;;;;;;;8.53;7.10;;;;;;;11.39;80.83;101863.69;5020298;28;20239;-68
2023/05/31 01:41:25;;;;;;;10.33;7.57;;;;;;;11.38;80.58;101864.63;5025184;28;20203;-68
2023/05/31 01:43:54;;;;;;;11.80;8.57;;;;;;;11.33;80.34;101858.66;5019287;28;20683;-68
2023/05/31 01:46:21;;;;;;;8.03;6.83;;;;;;;11.31;80.57;101871.19;5022093;28;20234;-68
2023/05/31 01:48:49;;;;;;;10.07;7.60;;;;;;;11.29;80.92;101867.72;5021636;28;20670;-68
2023/05/31 01:51:16;;;;;;;10.73;8.17;;;;;;;11.26;80.53;101867.88;5020803;28;20217;-68
2023/05/31 01:53:43;;;;;;;9.50;7.40;;;;;;;11.21;80.55;101867.22;5023992;28;20209;-68
2023/05/31 01:56:10;;;;;;;9.23;7.70;;;;;;;11.16;80.52;101863.91;5024439;28;20222;-68
2023/05/31 01:58:41;;;;;;;9.67;7.53;;;;;;;11.14;80.67;101872.84;5025397;28;20232;-68
2023/05/31 02:01:12;;;;;;;8.80;6.90;;;;;;;11.10;80.68;101862.41;5017623;28;20214;-68
2023/05/31 02:03:39;;;;;;;10.60;7.60;;;;;;;11.08;80.72;101859.81;5019000;28;20616;-68
2023/05/31 02:06:06;;;;;;;8.80;6.67;;;;;;;11.06;80.90;101853.69;5026326;28;20224;-68
2023/05/31 02:08:32;;;;;;;7.87;6.60;;;;;;;11.08;81.22;101854.47;5013399;28;20212;-68
2023/05/31 02:10:59;;;;;;;9.67;7.47;;;;;;;11.10;81.53;101849.94;5025152;28;20256;-68
2023/05/31 02:13:27;;;;;;;10.33;8.20;;;;;;;11.12;81.92;101853.38;5020034;28;20215;-68
2023/05/31 02:15:54;;;;;;;10.00;8.93;;;;;;;11.15;82.08;101852.38;5025955;28;20237;-68
2023/05/31 02:18:22;;;;;;;9.03;7.40;;;;;;;11.16;82.02;101850.56;5023491;28;20235;-68
2023/05/31 02:20:49;;;;;;;9.03;7.50;;;;;;;11.09;81.31;101848.22;5020166;28;20286;-68
2023/05/31 02:23:15;;;;;;;11.10;7.60;;;;;;;11.01;80.74;101847.69;5020435;28;20200;-68
2023/05/31 02:25:45;;;;;;;11.23;7.77;;;;;;;10.93;81.15;101852.50;5023885;28;20218;-68
2023/05/31 02:28:12;;;;;;;8.63;7.37;;;;;;;10.89;81.39;101847.41;5025094;28;20253;-68
2023/05/31 02:30:40;;;;;;;10.33;8.53;;;;;;;10.87;82.09;101855.47;5022920;28;20218;-68
2023/05/31 02:33:07;;;;;;;12.57;9.53;;;;;;;10.88;83.32;101854.53;5025608;28;20208;-68
2023/05/31 02:35:35;;;;;;;13.70;8.33;;;;;;;10.92;84.53;101852.59;5020820;28;20686;-68
2023/05/31 02:38:02;;;;;;;11.17;8.13;;;;;;;10.94;84.91;101850.69;5020586;28;20215;-68
2023/05/31 02:40:28;;;;;;;12.03;8.87;;;;;;;10.93;85.61;101852.50;5023450;28;20228;-68
2023/05/31 02:42:55;;;;;;;10.40;8.20;;;;;;;10.95;85.55;101850.63;5023709;28;20580;-68
2023/05/31 02:45:21;;;;;;;9.83;8.27;;;;;;;10.95;85.80;101844.44;5022764;28;20207;-68
2023/05/31 02:47:48;;;;;;;11.10;7.60;;;;;;;10.94;85.52;101854.22;5024972;28;20589;-68
2023/05/31 02:50:14;;;;;;;9.50;8.23;;;;;;;10.92;85.63;101845.47;5025630;28;20671;-68
2023/05/31 02:52:44;;;;;;;12.67;8.47;;;;;;;10.88;84.82;101845.66;5023718;28;20678;-68
2023/05/31 02:55:10;;;;;;;9.07;7.83;;;;;;;10.79;83.83;101849.59;5028741;28;20243;-68
2023/05/31 02:57:37;;;;;;;10.80;7.77;;;;;;;10.68;83.58;101839.44;5021640;28;20233;-69
2023/05/31 03:00:11;;;;;;;10.43;7.60;;;;;;;10.60;83.52;101830.03;5024191;28;20227;-68
2023/05/31 03:02:37;;;;;;;9.10;8.20;;;;;;;10.52;83.52;101833.06;5019589;28;20291;-69
2023/05/31 03:05:04;;;;;;;10.93;7.70;;;;;;;10.45;83.42;101831.59;5023842;28;20205;-68
2023/05/31 03:07:31;;;;;;;10.13;8.43;;;;;;;10.39;83.75;101821.22;5026243;28;20632;-68
2023/05/31 03:09:59;;;;;;;12.90;8.57;;;;;;;10.33;83.46;101832.13;5020076;28;20720;-68
2023/05/31 03:12:25;;;;;;;9.80;8.37;;;;;;;10.28;83.59;101823.47;5020687;28;20205;-68
2023/05/31 03:14:52;;;;;;;10.57;8.20;;;;;;;10.23;84.03;101826.31;5022167;28;20206;-68
2023/05/31 03:17:18;;;;;;;12.23;8.90;;;;;;;10.19;84.44;101830.06;5028244;28;20253;-68
2023/05/31 03:19:44;;;;;;;12.23;8.97;;;;;;;10.17;84.93;101839.03;5027922;28;21024;-68
2023/05/31 03:22:11;;;;;;;8.80;7.67;;;;;;;10.14;84.87;101836.47;5027806;28;20485;-68
2023/05/31 03:24:37;;;;;;;10.47;8.33;;;;;;;10.12;85.81;101839.22;5027912;28;20202;-68
2023/05/31 03:27:06;;;;;;;12.23;8.00;;;;;;;10.11;85.90;101837.47;5028426;28;20764;-69
2023/05/31 03:29:34;;;;;;;10.57;7.87;;;;;;;10.13;86.13;101846.25;5020363;28;20632;-68
2023/05/31 03:32:00;;;;;;;9.73;7.53;;;;;;;10.13;86.16;101840.94;5023633;28;20210;-68
2023/05/31 03:34:27;;;;;;;12.07;8.40;;;;;;;10.15;86.66;101848.88;5027230;28;20214;-68
2023/05/31 03:36:53;;;;;;;8.87;7.57;;;;;;;10.15;86.44;101849.72;5024469;28;21989;-68
2023/05/31 03:39:20;;;;;;;9.87;7.80;;;;;;;10.17;86.85;101852.34;5028488;28;20222;-69
2023/05/31 03:41:46;;;;;;;9.60;7.70;;;;;;;10.16;86.17;101848.81;5022281;28;20591;-68
2023/05/31 03:44:14;;;;;;;9.27;7.87;;;;;;;10.14;86.19;101844.47;5024357;28;20217;-68
2023/05/31 03:46:41;;;;;;;11.13;8.00;;;;;;;10.10;85.86;101849.91;5021991;28;20321;-69
2023/05/31 03:49:07;;;;;;;8.90;7.53;;;;;;;10.06;85.88;101850.09;5024486;28;20229;-68
2023/05/31 03:51:34;;;;;;;9.50;7.70;;;;;;;10.04;86.15;101854.63;5016672;28;20229;-68
2023/05/31 03:54:01;;;;;;;10.70;7.70;;;;;;;9.99;85.53;101854.84;5026081;28;20221;-68
2023/05/31 03:56:27;;;;;;;8.80;7.87;;;;;;;9.94;85.98;101848.84;5027939;28;20230;-69
2023/05/31 03:58:54;;;;;;;14.17;8.40;;;;;;;9.91;86.31;101848.94;5020730;28;20600;-68
2023/05/31 04:01:22;;;;;;;10.33;8.40;;;;;;;9.90;86.53;101847.22;5023460;28;20213;-68
2023/05/31 04:03:48;;;;;;;11.90;8.87;;;;;;;9.89;86.79;101848.16;5021822;28;20269;-68
2023/05/31 04:06:15;;;;;;;12.27;9.03;;;;;;;9.89;87.38;101845.47;5023277;28;20221;-68
2023/05/31 04:08:41;;;;;;;11.53;8.30;;;;;;;9.89;87.21;101848.16;5018154;28;20221;-68
2023/05/31 04:11:08;;;;;;;13.63;9.27;;;;;;;9.89;87.72;101849.94;5020648;28;20214;-68
2023/05/31 04:13:34;;;;;;;12.87;9.27;;;;;;;9.88;87.57;101848.22;5020910;28;20678;-68
2023/05/31 04:16:01;;;;;;;13.63;9.50;;;;;;;9.90;88.55;101849.00;5024899;28;20260;-68
2023/05/31 04:18:28;;;;;;;14.37;8.77;;;;;;;9.89;88.64;101845.47;5024378;28;20217;-69
2023/05/31 04:20:55;;;;;;;10.80;9.10;;;;;;;9.91;89.41;101848.94;5025125;28;20234;-68
2023/05/31 04:23:21;;;;;;;13.90;9.60;;;;;;;9.93;89.25;101843.56;5024664;28;20221;-69
2023/05/31 04:25:48;;;;;;;13.73;10.13;;;;;;;9.95;90.08;101847.91;5022122;28;20210;-68
2023/05/31 04:28:18;;;;;;;11.77;8.97;;;;;;;9.96;90.28;101841.66;5020728;28;20509;-68
2023/05/31 04:30:45;;;;;;;13.13;9.47;;;;;;;9.98;90.85;101839.78;5018997;28;20206;-68
2023/05/31 04:33:12;;;;;;;11.63;9.67;;;;;;;10.01;91.33;101838.81;5017461;28;20688;-68
2023/05/31 04:35:40;;;;;;;15.10;10.30;;;;;;;10.02;91.80;101843.19;5018160;28;20222;-68
2023/05/31 04:38:08;;;;;;;14.13;9.77;;;;;;;10.05;92.02;101848.38;5027272;28;20202;-68
2023/05/31 04:40:34;;;;;;;15.77;9.97;;;;;;;10.09;92.73;101844.66;5020056;28;20279;-68
2023/05/31 04:43:01;;;;;;;18.43;9.97;;;;;;;10.14;93.82;101837.34;5020441;28;20209;-68
2023/05/31 04:45:28;;;;;;;17.13;9.30;;;;;;;10.19;94.35;101843.38;5018035;28;20408;-68
2023/05/31 04:47:55;;;;;;;17.33;10.70;;;;;;;10.28;94.93;101855.41;5024669;28;20222;-68
2023/05/31 04:50:21;;;;;;;14.57;10.07;;;;;;;10.36;95.79;101854.19;5023373;28;20203;-69
2023/05/31 04:52:51;;;;;;;19.07;10.47;;;;;;;10.43;96.11;101850.28;5022633;28;20209;-68
2023/05/31 04:55:17;;;;;;;18.47;9.93;;;;;;;10.53;96.31;101849.91;5018384;28;20210;-68
2023/05/31 04:57:44;;;;;;;14.27;10.07;;;;;;;10.59;96.69;101846.94;5021112;28;20233;-69
2023/05/31 05:00:15;;;;;;;16.53;10.30;;;;;;;10.64;96.62;101853.81;5025514;28;20260;-68
2023/05/31 05:02:42;;;;;;;13.83;9.67;;;;;;;10.69;96.80;101853.63;5020211;28;20684;-68
2023/05/31 05:05:09;;;;;;;19.10;10.03;;;;;;;10.75;96.84;101850.66;5025256;28;21396;-68
2023/05/31 05:07:36;;;;;;;12.00;8.73;;;;;;;10.79;96.84;101862.91;5018404;28;20219;-69
2023/05/31 05:10:05;;;;;;;12.27;9.57;;;;;;;10.84;97.15;101860.91;5029611;28;20234;-68
2023/05/31 05:12:31;;;;;;;11.17;9.30;;;;;;;10.88;97.07;101857.19;5023401;28;20207;-68
2023/05/31 05:14:58;;;;;;;16.33;9.77;;;;;;;10.94;96.78;101862.22;5021033;28;20207;-68
2023/05/31 05:17:24;;;;;;;13.87;9.93;;;;;;;10.99;96.95;101860.22;5020318;28;20246;-69
2023/05/31 05:19:51;;;;;;;18.10;9.90;;;;;;;11.06;97.06;101859.00;5023104;28;20229;-68
2023/05/31 05:22:17;;;;;;;16.53;9.97;;;;;;;11.13;97.09;101865.78;5024260;28;20209;-69
2023/05/31 05:24:44;;;;;;;13.77;9.07;;;;;;;11.23;97.09;101870.69;5025003;28;20212;-69
2023/05/31 05:27:11;;;;;;;12.60;8.87;;;;;;;11.33;97.32;101869.31;5022759;28;20233;-68
2023/05/31 05:29:38;;;;;;;18.00;8.87;;;;;;;11.42;97.34;101874.22;5017202;28;20211;-67
2023/05/31 05:32:05;;;;;;;17.40;11.67;;;;;;;11.51;97.36;101873.78;5017174;28;20208;-72
2023/05/31 05:34:31;;;;;;;14.13;8.80;;;;;;;11.62;97.31;101874.16;5022009;28;20297;-75
2023/05/31 05:36:58;;;;;;;16.43;8.97;;;;;;;11.75;97.49;101875.28;5020717;28;20223;-71
2023/05/31 05:39:24;;;;;;;15.30;8.63;;;;;;;11.89;97.31;101871.09;5021244;28;20722;-72
2023/05/31 05:41:51;;;;;;;12.80;8.20;;;;;;;12.03;96.89;101866.78;5017096;28;20305;-72
2023/05/31 05:44:19;;;;;;;17.00;8.50;;;;;;;12.18;96.42;101866.00;5018015;28;20771;-73
2023/05/31 05:46:45;;;;;;;12.53;7.87;;;;;;;12.33;95.97;101861.72;5020550;28;20229;-72
2023/05/31 05:49:12;;;;;;;13.27;7.57;;;;;;;12.50;95.12;101866.19;5025939;28;20202;-72
2023/05/31 05:51:38;;;;;;;14.00;7.20;;;;;;;12.66;94.02;101871.59;5023052;28;20194;-71
2023/05/31 05:54:05;;;;;;;15.23;8.50;;;;;;;12.81;92.90;101866.28;5022794;28;20209;-72
2023/05/31 05:56:32;;;;;;;12.47;7.50;;;;;;;12.97;92.28;101860.13;5025438;28;20320;-72
2023/05/31 05:58:58;;;;;;;16.70;7.63;;;;;;;13.14;91.30;101852.03;5015872;28;20210;-72
2023/05/31 06:01:26;;;;;;;13.97;7.47;;;;;;;13.33;90.35;101862.63;5025728;28;20236;-72
2023/05/31 06:03:54;;;;;;;9.90;6.77;;;;;;;13.48;89.04;101867.97;5022520;28;20202;-72
2023/05/31 06:06:20;;;;;;;11.20;7.30;;;;;;;13.64;87.69;101859.94;5014610;28;20227;-71
2023/05/31 06:08:47;;;;;;;10.83;6.50;;;;;;;13.79;86.68;101869.75;5024817;28;20222;-72
2023/05/31 06:11:15;;;;;;;12.70;6.77;;;;;;;13.97;85.88;101861.66;5026906;28;20573;-72
2023/05/31 06:13:43;;;;;;;12.60;5.93;;;;;;;14.13;84.15;101862.47;5025040;28;20221;-71
2023/05/31 06:16:10;;;;;;;12.63;6.43;;;;;;;14.26;83.35;101855.44;5022362;28;20242;-72
2023/05/31 06:18:37;;;;;;;9.53;6.47;;;;;;;14.41;82.13;101864.41;5023788;28;20219;-72
2023/05/31 06:21:04;;;;;;;9.87;5.70;;;;;;;14.53;80.96;101860.97;5026757;28;20227;-71
2023/05/31 06:23:30;;;;;;;10.73;6.83;;;;;;;14.70;80.70;101859.94;5021330;28;20626;-72
2023/05/31 06:25:57;;;;;;;12.10;6.40;;;;;;;14.82;79.09;101859.19;5022962;28;20718;-72
2023/05/31 06:28:23;;;;;;;10.37;6.33;;;;;;;14.94;78.19;101861.09;5027269;28;20670;-71
2023/05/31 06:30:50;;;;;;;9.77;6.30;;;;;;;15.09;77.42;101861.97;5019551;28;20564;-71
2023/05/31 06:33:16;;;;;;;8.90;6.53;;;;;;;15.22;76.87;101858.44;5027102;28;20738;-73
2023/05/31 06:35:44;;;;;;;8.53;6.07;;;;;;;15.36;75.43;101860.22;5021200;28;20201;-72
2023/05/31 06:38:14;;;;;;;11.70;6.00;;;;;;;15.50;75.00;101856.63;5028064;28;20211;-71
2023/05/31 06:40:41;;;;;;;10.13;5.63;;;;;;;15.63;73.74;101858.47;5022498;28;21030;-74
2023/05/31 06:43:08;;;;;;;8.80;5.60;;;;;;;15.76;72.92;101852.31;5028626;28;20215;-73
2023/05/31 06:45:34;;;;;;;10.53;5.60;;;;;;;15.90;73.00;101855.78;5029864;28;20208;-72
2023/05/31 06:48:01;;;;;;;8.67;5.60;;;;;;;16.07;71.92;101849.28;5028197;28;20207;-72
2023/05/31 06:50:27;;;;;;;10.83;5.53;;;;;;;16.20;71.01;101843.94;5030725;28;20203;-72
2023/05/31 06:52:55;;;;;;;9.67;5.87;;;;;;;16.39;71.05;101847.09;5022270;28;20220;-72
2023/05/31 06:55:21;;;;;;;9.37;5.90;;;;;;;16.52;69.95;101845.25;5025625;28;20209;-72
2023/05/31 06:57:48;;;;;;;8.73;5.97;;;;;;;16.70;68.91;101847.69;5029614;28;20245;-73
2023/05/31 07:00:15;;;;;;;8.67;5.37;;;;;;;16.86;67.74;101849.19;5028277;28;20225;-72
2023/05/31 07:02:41;;;;;;;12.27;6.03;;;;;;;17.00;66.21;101848.22;5029053;28;20356;-70
2023/05/31 07:05:08;;;;;;;8.13;5.33;;;;;;;17.13;65.29;101837.44;5022281;28;20225;-72
2023/05/31 07:07:35;;;;;;;8.23;5.20;;;;;;;17.29;65.20;101846.97;5022108;28;20223;-72
2023/05/31 07:10:03;;;;;;;9.63;5.40;;;;;;;17.48;64.47;101843.81;5028452;28;20210;-73
2023/05/31 07:12:30;;;;;;;8.80;5.57;;;;;;;17.65;63.89;101846.16;5026910;28;20210;-73
2023/05/31 07:14:56;;;;;;;6.87;4.40;;;;;;;17.84;63.64;101837.53;5024345;28;20211;-72
2023/05/31 07:17:23;;;;;;;7.10;4.87;;;;;;;17.99;62.48;101849.00;5026712;28;20649;-72
2023/05/31 07:19:50;;;;;;;8.37;5.13;;;;;;;18.16;61.90;101842.31;5029365;28;20217;-72
2023/05/31 07:22:18;;;;;;;11.87;4.77;;;;;;;18.30;60.79;101847.53;5019373;28;20269;-71
2023/05/31 07:24:45;;;;;;;6.17;4.37;;;;;;;18.48;60.56;101850.63;5026689;28;20215;-73
2023/05/31 07:27:12;;;;;;;6.03;4.33;;;;;;;18.61;58.54;101846.06;5025105;28;20236;-72
2023/05/31 07:29:39;;;;;;;8.50;5.13;;;;;;;18.68;57.12;101847.28;5016650;28;20199;-72
2023/05/31 07:32:06;;;;;;;7.03;4.60;;;;;;;18.75;56.42;101842.28;5023570;28;20208;-75
2023/05/31 07:34:33;;;;;;;8.17;4.77;;;;;;;18.83;56.39;101840.66;5023628;28;20204;-73
2023/05/31 07:36:59;;;;;;;7.30;3.97;;;;;;;18.98;56.11;101850.28;5021960;28;20237;-72
2023/05/31 07:39:26;;;;;;;8.73;4.20;;;;;;;19.13;55.46;101841.91;5025229;28;20646;-72
2023/05/31 07:41:52;;;;;;;8.73;3.70;;;;;;;19.25;54.68;101844.47;5024352;28;20611;-72
2023/05/31 07:44:21;;;;;;;9.17;4.00;;;;;;;19.36;54.74;101839.06;5025203;28;20985;-72
2023/05/31 07:46:48;;;;;;;8.43;4.40;;;;;;;19.49;54.26;101827.25;5023811;28;20244;-72
2023/05/31 07:49:14;;;;;;;5.97;3.70;;;;;;;19.61;53.37;101831.69;5019481;28;20209;-72
2023/05/31 07:51:41;;;;;;;5.80;3.43;;;;;;;19.68;51.91;101831.06;5023549;28;20219;-71
2023/05/31 07:54:07;;;;;;;7.93;3.50;;;;;;;19.79;51.51;101824.75;5027158;28;20212;-72
2023/05/31 07:56:33;;;;;;;8.17;3.70;;;;;;;19.86;51.28;101814.28;5022357;28;20316;-72
2023/05/31 07:59:00;;;;;;;5.40;3.53;;;;;;;19.99;51.18;101805.00;5027737;28;20215;-72
2023/05/31 08:01:28;;;;;;;5.40;3.47;;;;;;;20.14;50.76;101823.63;5020412;28;20245;-72
2023/05/31 08:03:55;;;;;;;6.00;3.13;;;;;;;20.32;50.45;101819.34;5021673;28;20213;-72
2023/05/31 08:06:22;;;;;;;8.03;3.30;;;;;;;20.49;50.14;101807.94;5020347;28;20728;-71
2023/05/31 08:08:48;;;;;;;4.70;3.13;;;;;;;20.60;48.99;101813.28;5025126;28;20210;-73
2023/05/31 08:11:15;;;;;;;4.70;3.07;;;;;;;20.68;48.93;101810.75;5026825;28;20200;-71
2023/05/31 08:13:41;;;;;;;6.93;3.60;;;;;;;20.79;48.84;101810.66;5025142;28;20212;-72
2023/05/31 08:16:08;;;;;;;6.50;3.30;;;;;;;20.95;48.97;101802.06;5023328;28;20244;-73
2023/05/31 08:18:35;;;;;;;5.53;3.00;;;;;;;21.14;48.83;101799.41;5023386;28;20236;-72
2023/05/31 08:21:02;;;;;;;8.85;3.70;;;;;;;21.32;48.34;101791.50;5020108;28;20222;-73
2023/05/31 08:23:29;;;;;;;7.22;3.30;;;;;;;21.50;48.72;101802.53;5021270;28;20265;-74
2023/05/31 08:25:56;;;;;;;9.52;3.15;;;;;;;21.67;47.76;101798.28;5019424;28;20225;-74
2023/05/31 08:28:22;;;;;;;6.10;3.50;;;;;;;21.76;47.33;101795.56;5020427;28;20634;-74
2023/05/31 08:30:49;;;;;;;5.05;3.20;;;;;;;21.85;46.71;101799.31;5023756;28;20213;-67
2023/05/31 08:33:15;;;;;;;6.18;3.65;;;;;;;21.88;46.79;101782.72;5023417;28;20293;-74
2023/05/31 08:35:43;;;;;;;5.70;2.95;;;;;;;21.94;46.54;101787.59;5026902;28;20681;-73
2023/05/31 08:38:10;;;;;;;5.30;3.25;;;;;;;22.05;46.98;101783.88;5026481;28;20210;-74
2023/05/31 08:40:36;;;;;;;5.07;3.08;;;;;;;22.18;46.45;101787.19;5020972;28;20720;-73
2023/05/31 08:43:07;;;;;;;5.90;2.60;;;;;;;22.29;46.17;101786.16;5017876;28;20206;-74
2023/05/31 08:45:35;;;;;;;7.07;2.67;;;;;;;22.44;45.74;101788.25;5021289;28;20210;-74
2023/05/31 08:48:10;;;;;;;6.22;2.80;;;;;;;22.56;44.49;101794.41;5021158;28;20714;-73
2023/05/31 08:50:37;;;;;;;3.80;2.38;;;;;;;22.66;43.50;101788.91;5025923;28;20658;-78
2023/05/31 08:53:07;;;;;;;5.00;2.42;;;;;;;22.73;43.80;101780.03;5024815;28;20202;-73
2023/05/31 08:55:36;;;;;;;4.20;2.40;;;;;;;22.80;43.36;101786.59;5025756;28;20686;-71
2023/05/31 08:58:03;;;;;;;4.60;3.08;;;;;;;22.89;43.63;101774.00;5027070;28;20208;-72
2023/05/31 09:00:30;;;;;;;6.63;2.30;;;;;;;22.97;43.46;101773.25;5026525;28;20205;-72
2023/05/31 09:02:59;;;;;;;6.75;2.47;;;;;;;23.02;42.99;101773.66;5025262;28;20690;-72
2023/05/31 09:05:25;;;;;;;4.35;2.53;;;;;;;23.10;42.44;101766.47;5022168;28;20205;-73
2023/05/31 09:07:52;;;;;;;7.28;2.65;;;;;;;23.21;42.42;101765.41;5022925;28;20226;-73
2023/05/31 09:10:20;;;;;;;5.45;2.30;;;;;;;23.32;41.75;101764.31;5024463;28;20210;-77
2023/05/31 09:12:46;;;;;;;4.70;2.00;;;;;;;23.44;41.79;101765.81;5016428;28;20214;-73
2023/05/31 09:15:15;;;;;;;4.72;2.33;;;;;;;23.51;41.49;101756.03;5020527;28;20241;-72
2023/05/31 09:17:43;;;;;;;3.88;2.20;;;;;;;23.55;40.73;101757.47;5022451;28;20261;-76
2023/05/31 09:20:10;;;;;;;3.33;1.75;;;;;;;23.58;40.60;101759.88;5023081;28;20344;-71
2023/05/31 09:22:37;;;;;;;4.93;2.22;;;;;;;23.65;40.14;101755.50;5025862;28;20707;-73
2023/05/31 09:25:04;;;;;;;4.57;2.00;;;;;;;23.72;39.09;101747.59;5023299;28;20566;-72
2023/05/31 09:27:38;;;;;;;6.22;2.40;;;;;;;23.71;38.94;101751.31;5025182;28;20217;-72
2023/05/31 09:30:08;;;;;;;7.50;2.20;;;;;;;23.70;39.16;101750.47;5021904;28;20674;-72
2023/05/31 09:32:35;;;;;;;4.43;1.98;;;;;;;23.76;39.29;101743.56;5022747;28;20373;-73
2023/05/31 09:35:11;;;;;;;6.57;2.47;;;;;;;23.89;40.06;101746.72;5023592;28;20202;-73
2023/05/31 09:37:44;;;;;;;5.43;1.80;;;;;;;24.03;39.29;101739.84;5026306;28;20715;-72
2023/05/31 09:40:13;;;;;;;4.25;2.20;;;;;;;24.19;38.76;101745.44;5019118;28;20743;-72
2023/05/31 09:42:47;;;;;;;4.28;2.05;;;;;;;24.31;37.82;101741.47;5024857;28;20232;-73
2023/05/31 09:45:14;;;;;;;5.63;1.90;;;;;;;24.43;37.47;101744.78;5021377;28;20232;-73
2023/05/31 09:47:40;;;;;;;4.25;1.98;;;;;;;24.57;37.83;101736.00;5023350;28;20244;-72
2023/05/31 09:50:09;;;;;;;4.65;2.00;;;;;;;24.66;37.74;101743.22;5023371;28;20210;-73
2023/05/31 09:52:38;;;;;;;3.28;1.60;;;;;;;24.74;37.43;101743.25;5024092;28;20205;-73
2023/05/31 09:55:06;;;;;;;4.10;1.75;;;;;;;24.83;37.01;101736.81;5021450;28;20209;-73
2023/05/31 09:57:40;;;;;;;4.88;2.42;;;;;;;24.88;36.85;101730.91;5022190;28;20224;-72
2023/05/31 10:00:16;;;;;;;4.70;1.80;;;;;;;24.90;36.76;101731.59;5024520;28;20204;-73
2023/05/31 10:02:43;;;;;;;5.55;1.95;;;;;;;24.88;36.84;101739.94;5023085;28;20390;-73
2023/05/31 10:05:11;;;;;;;6.15;1.98;;;;;;;24.90;37.21;101726.97;5025211;28;20209;-73
2023/05/31 10:07:39;;;;;;;7.90;2.15;;;;;;;25.00;37.58;101723.28;5029793;28;20225;-72
2023/05/31 10:10:07;;;;;;;3.85;2.10;;;;;;;25.04;37.34;101730.13;5028764;28;20641;-72
2023/05/31 10:12:40;;;;;;;5.68;2.17;;;;;;;25.10;36.73;101729.44;5025143;28;20202;-70
2023/05/31 10:15:13;;;;;;;7.53;1.92;;;;;;;25.10;36.78;101715.81;5023182;28;20705;-73
2023/05/31 10:17:43;;;;;;;2.80;1.60;;;;;;;25.12;37.14;101713.78;5029232;28;20233;-73
2023/05/31 10:20:14;;;;;;;3.65;1.73;;;;;;;25.14;36.61;101715.31;5025197;28;20210;-71
2023/05/31 10:22:44;;;;;;;3.10;1.65;;;;;;;25.13;36.20;101720.94;5027592;28;20230;-75
2023/05/31 10:25:14;;;;;;;5.32;2.15;;;;;;;25.12;35.87;101719.22;5027752;28;20213;-73
2023/05/31 10:27:45;;;;;;;6.68;2.05;;;;;;;25.16;36.05;101726.06;5025980;28;20233;-74
2023/05/31 10:30:14;;;;;;;5.47;2.33;;;;;;;25.21;35.83;101718.25;5029299;28;20198;-74
2023/05/31 10:32:44;;;;;;;5.72;1.65;;;;;;;25.27;36.01;101718.41;5025910;28;20210;-74
2023/05/31 10:35:11;;;;;;;6.35;2.53;;;;;;;25.32;35.73;101715.19;5024660;28;20731;-73
2023/05/31 10:37:40;;;;;;;5.63;1.98;;;;;;;25.35;35.73;101709.41;5025763;28;20237;-77
2023/05/31 10:40:13;;;;;;;6.10;2.33;;;;;;;25.39;36.01;101709.94;5022850;28;20319;-72
2023/05/31 10:42:46;;;;;;;6.20;1.77;;;;;;;25.46;35.87;101697.31;5024604;28;20229;-74
2023/05/31 10:45:17;;;;;;;4.22;1.75;;;;;;;25.56;35.91;101696.16;5025771;28;20214;-74
2023/05/31 10:47:50;;;;;;;6.47;2.28;;;;;;;25.62;35.86;101697.34;5027552;28;20222;-73
2023/05/31 10:50:21;;;;;;;5.10;2.20;;;;;;;25.65;35.58;101685.25;5029091;28;20208;-74
2023/05/31 10:52:49;;;;;;;5.40;2.03;;;;;;;25.70;35.95;101682.88;5024177;28;20202;-75
2023/05/31 10:55:17;;;;;;;5.78;1.88;;;;;;;25.79;35.75;101679.13;5026327;28;20218;-73
2023/05/31 10:57:43;;;;;;;3.15;1.77;;;;;;;25.84;34.79;101688.50;5027741;28;20733;-74
2023/05/31 11:00:11;;;;;;;3.65;1.85;;;;;;;25.90;34.33;101681.50;5026455;28;20231;-74
2023/05/31 11:02:47;;;;;;;5.90;2.15;;;;;;;25.90;34.54;101676.91;5023886;28;20226;-73
2023/05/31 11:05:21;;;;;;;3.75;1.70;;;;;;;26.00;34.57;101673.97;5026325;28;20699;-73
2023/05/31 11:07:48;;;;;;;5.60;1.70;;;;;;;26.07;34.23;101675.00;5025778;28;20233;-71
2023/05/31 11:10:26;;;;;;;5.60;1.67;;;;;;;26.14;33.74;101676.03;5024029;28;20220;-71
2023/05/31 11:12:52;;;;;;;3.60;1.70;;;;;;;26.12;33.47;101669.88;5024164;28;20242;-71
2023/05/31 11:15:19;;;;;;;3.70;1.45;;;;;;;26.18;33.76;101671.03;5021754;28;20210;-71
2023/05/31 11:17:56;;;;;;;4.78;1.95;;;;;;;26.26;33.91;101669.16;5017945;28;20961;-71
2023/05/31 11:20:22;;;;;;;2.65;1.55;;;;;;;26.27;33.13;101656.34;5017989;28;20202;-72
2023/05/31 11:23:27;;;;;;;2.22;1.75;;;;;;;26.31;33.41;101654.16;5022548;28;20257;-72
2023/05/31 11:26:17;;;;;;;4.10;1.60;;;;;;;26.39;33.66;101649.50;5021199;28;20226;-72